Starachowice, Poland
Current Conditions -  °F | °C
As of 11:30 PM on Saturday 20 Dec 2014 (Local Time) from EPLB Reporting Station
Broken Clouds Broken Clouds  
Wind Chill: 29°   Ceiling: 2400
Heat Index: 39°   Visibility: 6mi
Dew Point: 36°   Wind: 21mph
Humidity: 87%   Direction: 240°WSW
Pressure: 29.74"   Gusts: NA
Location:  51.06°N, 21.07°E
Report Text: EPLB 202130Z 24018KT 9999 FEW018 BKN024 04/02 Q1007
Loading
Personal Weather Stations






























Interactive Weather Map New forecast layout! Learn more

10-Day Weather Forecast

Advertisements
Track Severe Weather on mobile